Time;durP1;ratioP1;P1;durP2;ratioP2;P2;SDS_P1;SDS_P2;PMS_P1;PMS_P2;Temp;Humidity;BMP_temperature;BMP_pressure;BME280_temperature;BME280_humidity;BME280_pressure;Samples;Min_cycle;Max_cycle;Signal;HPM_P1;HPM_P2
2021/01/18 00:00:25;;;;;;;63.85;26.75;;;-8.40;87.00;;;;;;5105302;28;20331;-68
2021/01/18 00:02:51;;;;;;;62.50;26.05;;;-8.40;87.10;;;;;;5087518;28;20040;-67
2021/01/18 00:05:17;;;;;;;63.15;25.90;;;-8.50;86.90;;;;;;5107233;28;20034;-67
2021/01/18 00:07:46;;;;;;;65.20;25.50;;;-8.50;87.10;;;;;;5108075;28;20456;-68
2021/01/18 00:10:15;;;;;;;63.97;24.77;;;-8.50;87.50;;;;;;5107933;28;20719;-67
2021/01/18 00:12:54;;;;;;;66.82;27.35;;;-8.50;87.20;;;;;;5108100;27;20302;-67
2021/01/18 00:15:22;;;;;;;59.83;24.15;;;-8.50;87.20;;;;;;5108207;28;20042;-68
2021/01/18 00:17:48;;;;;;;50.90;21.60;;;-8.50;87.80;;;;;;5088030;28;20492;-67
2021/01/18 00:20:17;;;;;;;45.13;19.33;;;-8.50;88.40;;;;;;5104808;28;20118;-67
2021/01/18 00:22:43;;;;;;;45.20;19.52;;;-8.40;89.10;;;;;;5102981;28;20042;-68
2021/01/18 00:25:11;;;;;;;45.53;20.05;;;-8.40;88.40;;;;;;5107458;28;20063;-68
2021/01/18 00:27:38;;;;;;;62.88;25.23;;;-8.40;88.00;;;;;;5089212;28;20051;-67
2021/01/18 00:30:15;;;;;;;62.88;23.20;;;-8.50;87.40;;;;;;5089622;28;20035;-65
2021/01/18 00:32:41;;;;;;;46.45;18.58;;;-8.50;87.60;;;;;;5101598;28;20046;-67
2021/01/18 00:35:09;;;;;;;40.15;17.27;;;-8.60;87.60;;;;;;5104750;28;20032;-66
2021/01/18 00:37:42;;;;;;;43.55;19.08;;;-8.60;87.50;;;;;;5107498;27;20095;-68
2021/01/18 00:40:10;;;;;;;50.38;22.23;;;-8.60;87.20;;;;;;5107051;28;20032;-68
2021/01/18 00:42:35;;;;;;;48.60;21.60;;;-8.60;87.20;;;;;;5107833;28;20186;-68
2021/01/18 00:45:02;;;;;;;41.08;18.90;;;-8.70;87.50;;;;;;5106181;28;20547;-67
2021/01/18 00:47:27;;;;;;;44.22;20.08;;;-8.70;87.70;;;;;;5107189;28;20054;-68
2021/01/18 00:49:53;;;;;;;46.00;18.58;;;-8.70;87.40;;;;;;5107553;28;20515;-67
2021/01/18 00:52:19;;;;;;;44.55;20.65;;;-8.70;86.90;;;;;;5103355;28;20035;-67
2021/01/18 00:54:44;;;;;;;50.88;22.02;;;-8.70;87.50;;;;;;5105432;28;20051;-67
2021/01/18 00:57:10;;;;;;;45.63;20.83;;;-8.80;87.50;;;;;;5089047;28;20063;-65
2021/01/18 00:59:35;;;;;;;46.38;21.23;;;-8.80;87.50;;;;;;5103018;28;20607;-68
2021/01/18 01:02:01;;;;;;;49.05;22.58;;;-8.80;87.40;;;;;;5105534;28;20048;-67
2021/01/18 01:04:27;;;;;;;43.70;19.73;;;-8.90;87.60;;;;;;5085399;28;20057;-67
2021/01/18 01:06:52;;;;;;;53.50;22.65;;;-8.90;87.70;;;;;;5089229;28;20043;-68
2021/01/18 01:09:18;;;;;;;59.08;23.33;;;-8.90;87.80;;;;;;5102510;28;20048;-68
2021/01/18 01:11:45;;;;;;;62.63;25.38;;;-8.90;87.80;;;;;;5102979;28;20088;-67
2021/01/18 01:14:11;;;;;;;96.68;40.13;;;-8.90;88.60;;;;;;5106752;28;20039;-65
2021/01/18 01:16:37;;;;;;;82.85;34.25;;;-8.90;88.70;;;;;;5105072;28;20031;-65
2021/01/18 01:19:03;;;;;;;63.92;26.58;;;-8.80;88.10;;;;;;5106713;27;20031;-67
2021/01/18 01:21:29;;;;;;;48.90;21.58;;;-8.80;87.70;;;;;;5105926;28;20080;-68
2021/01/18 01:23:55;;;;;;;46.58;20.08;;;-8.70;88.00;;;;;;5106535;28;20039;-67
2021/01/18 01:26:21;;;;;;;47.35;21.20;;;-8.60;87.20;;;;;;5106491;28;20134;-67
2021/01/18 01:28:47;;;;;;;44.67;19.90;;;-8.60;87.00;;;;;;5105961;28;20039;-68
2021/01/18 01:31:12;;;;;;;56.35;24.58;;;-8.60;87.30;;;;;;5101904;28;20043;-68
2021/01/18 01:33:38;;;;;;;36.00;17.40;;;-8.60;87.30;;;;;;5106129;28;20114;-67
2021/01/18 01:36:04;;;;;;;43.80;18.98;;;-8.50;87.10;;;;;;5086856;28;20046;-67
2021/01/18 01:38:31;;;;;;;37.78;18.23;;;-8.50;86.70;;;;;;5104400;28;20511;-67
2021/01/18 01:40:57;;;;;;;46.00;20.05;;;-8.60;86.80;;;;;;5084238;28;20062;-67
2021/01/18 01:43:23;;;;;;;49.08;22.35;;;-8.40;86.90;;;;;;5106509;28;20552;-67
2021/01/18 01:45:48;;;;;;;48.70;20.80;;;-8.40;86.60;;;;;;5105117;28;20096;-66
2021/01/18 01:48:14;;;;;;;61.45;24.70;;;-8.30;86.50;;;;;;5087951;28;20079;-67
2021/01/18 01:50:40;;;;;;;56.45;22.83;;;-8.10;86.40;;;;;;5105986;28;20096;-67
2021/01/18 01:53:21;;;;;;;74.80;29.50;;;-8.10;86.10;;;;;;5106375;28;20480;-67
2021/01/18 01:55:48;;;;;;;55.92;22.98;;;-8.00;86.40;;;;;;5105872;28;20035;-68
2021/01/18 01:58:15;;;;;;;40.97;19.40;;;-7.90;86.40;;;;;;5105744;28;20043;-68
2021/01/18 02:00:42;;;;;;;45.55;18.58;;;-7.80;86.10;;;;;;5106117;28;20036;-67
2021/01/18 02:03:11;;;;;;;55.30;24.33;;;-7.80;86.00;;;;;;5102172;28;20092;-66
2021/01/18 02:05:39;;;;;;;48.15;22.65;;;-7.70;86.20;;;;;;5100848;28;20040;-67
2021/01/18 02:08:07;;;;;;;45.20;20.60;;;-7.70;86.30;;;;;;5105782;28;20073;-67
2021/01/18 02:10:35;;;;;;;41.83;18.75;;;-7.70;86.60;;;;;;5105652;28;20407;-67
2021/01/18 02:13:14;;;;;;;43.00;20.15;;;-7.60;86.70;;;;;;5105767;28;20457;-67
2021/01/18 02:16:10;;;;;;;52.33;25.13;;;-7.50;86.80;;;;;;5104612;28;20063;-67
2021/01/18 02:18:53;;;;;;;49.05;21.52;;;-7.50;87.00;;;;;;5073625;28;20085;-68
2021/01/18 02:21:52;;;;;;;35.00;15.90;;;-7.40;86.90;;;;;;5105307;28;20515;-69
2021/01/18 02:24:33;;;;;;;36.58;17.40;;;-7.30;86.40;;;;;;5102802;28;20115;-67
2021/01/18 02:27:56;;;;;;;35.03;16.30;;;-7.20;86.20;;;;;;5085571;28;20039;-68
2021/01/18 02:30:41;;;;;;;35.17;15.98;;;-7.10;86.00;;;;;;4986093;28;20156;-66
2021/01/18 02:33:31;;;;;;;30.23;14.50;;;-7.00;86.30;;;;;;4986478;28;20577;-68
2021/01/18 02:36:08;;;;;;;33.63;16.65;;;-6.90;86.30;;;;;;5061058;28;20100;-67
2021/01/18 02:38:46;;;;;;;34.88;15.90;;;-6.80;86.30;;;;;;5105382;27;20500;-67
2021/01/18 02:41:48;;;;;;;31.60;15.43;;;-6.80;86.10;;;;;;5104422;28;20032;-66
2021/01/18 02:44:18;;;;;;;37.80;17.90;;;-6.70;86.30;;;;;;5100073;28;20047;-67
2021/01/18 02:46:48;;;;;;;41.78;18.88;;;-6.60;85.90;;;;;;5105756;28;20391;-67
2021/01/18 02:49:17;;;;;;;37.40;15.90;;;-6.60;85.50;;;;;;5105351;28;20048;-65
2021/01/18 02:51:46;;;;;;;33.60;14.65;;;-6.50;84.70;;;;;;5105480;28;20031;-65
2021/01/18 02:54:12;;;;;;;34.80;16.30;;;-6.50;84.70;;;;;;5105338;28;20584;-64
2021/01/18 02:56:40;;;;;;;34.35;14.18;;;-6.40;84.70;;;;;;5105398;27;20134;-68
2021/01/18 02:59:10;;;;;;;34.83;16.85;;;-6.40;84.70;;;;;;5105997;28;20508;-67
2021/01/18 03:02:05;;;;;;;32.95;16.10;;;-6.40;84.70;;;;;;5104949;28;20031;-65
2021/01/18 03:04:46;;;;;;;40.30;18.65;;;-6.40;84.80;;;;;;5007841;28;20041;-65
2021/01/18 03:07:31;;;;;;;38.20;18.02;;;-6.40;84.80;;;;;;5086902;28;20044;-67
2021/01/18 03:10:07;;;;;;;35.03;14.95;;;-6.50;84.30;;;;;;5101155;28;20118;-66
2021/01/18 03:12:41;;;;;;;39.10;18.55;;;-6.50;84.40;;;;;;5086763;28;20701;-66
2021/01/18 03:15:11;;;;;;;37.58;17.25;;;-6.50;85.10;;;;;;5086907;28;20042;-67
2021/01/18 03:17:40;;;;;;;39.55;18.08;;;-6.60;84.60;;;;;;5104683;28;20641;-66
2021/01/18 03:20:07;;;;;;;42.78;19.00;;;-6.60;85.10;;;;;;5105074;28;20035;-67
2021/01/18 03:22:32;;;;;;;32.95;15.13;;;-6.60;84.50;;;;;;5103744;28;20104;-67
2021/01/18 03:25:07;;;;;;;35.88;16.25;;;-6.60;84.40;;;;;;5104161;28;20036;-66
2021/01/18 03:27:57;;;;;;;30.10;14.80;;;-6.60;84.50;;;;;;5104734;28;20047;-67
2021/01/18 03:30:24;;;;;;;30.83;14.07;;;-6.50;84.20;;;;;;5100638;28;20046;-67
2021/01/18 03:32:55;;;;;;;34.15;16.23;;;-6.60;84.20;;;;;;5087138;28;20051;-66
2021/01/18 03:35:22;;;;;;;32.67;13.52;;;-6.50;84.20;;;;;;5104299;28;20177;-67
2021/01/18 03:37:55;;;;;;;34.70;14.43;;;-6.50;83.90;;;;;;5100522;28;20126;-66
2021/01/18 03:40:22;;;;;;;35.45;15.68;;;-6.60;83.80;;;;;;5101680;27;20136;-67
2021/01/18 03:43:05;;;;;;;31.85;13.98;;;-6.60;83.30;;;;;;5106455;28;20406;-67
2021/01/18 03:45:33;;;;;;;29.52;14.32;;;-6.70;83.60;;;;;;5106896;27;20161;-69
2021/01/18 03:47:59;;;;;;;40.55;17.85;;;-6.80;83.90;;;;;;5108717;28;20031;-68
2021/01/18 03:50:25;;;;;;;59.17;23.98;;;-6.80;84.30;;;;;;5108789;28;20090;-66
2021/01/18 03:52:52;;;;;;;73.93;30.45;;;-6.80;84.60;;;;;;5107859;28;20046;-67
2021/01/18 03:55:19;;;;;;;63.25;27.02;;;-6.80;84.70;;;;;;5099564;28;20031;-66
2021/01/18 03:57:47;;;;;;;54.38;24.50;;;-6.80;84.60;;;;;;5104805;28;20075;-66
2021/01/18 04:00:15;;;;;;;78.35;30.63;;;-6.80;85.10;;;;;;5107728;28;20075;-66
2021/01/18 04:02:40;;;;;;;81.15;35.25;;;-6.80;85.20;;;;;;5108024;28;20039;-66
2021/01/18 04:05:07;;;;;;;82.13;35.05;;;-6.70;85.30;;;;;;5105878;28;20036;-67
2021/01/18 04:07:32;;;;;;;92.25;38.00;;;-6.60;85.30;;;;;;5089110;28;20080;-66
2021/01/18 04:09:58;;;;;;;130.30;51.75;;;-6.60;85.30;;;;;;5089158;28;20385;-65
2021/01/18 04:12:24;;;;;;;82.68;34.30;;;-6.50;85.50;;;;;;5108322;28;20679;-66
2021/01/18 04:14:49;;;;;;;143.85;59.13;;;-6.40;85.50;;;;;;5107066;28;20043;-66
2021/01/18 04:17:16;;;;;;;63.50;28.55;;;-6.40;85.30;;;;;;5107673;28;20035;-65
2021/01/18 04:19:42;;;;;;;54.15;24.13;;;-6.30;85.40;;;;;;5107846;28;20053;-66
2021/01/18 04:22:08;;;;;;;54.47;27.30;;;-6.30;85.40;;;;;;5106606;28;20047;-66
2021/01/18 04:24:34;;;;;;;65.68;29.42;;;-6.20;85.50;;;;;;5107282;28;20484;-66
2021/01/18 04:27:00;;;;;;;58.70;27.23;;;-6.10;85.80;;;;;;5107621;28;20096;-67
2021/01/18 04:29:26;;;;;;;47.42;24.02;;;-6.00;85.80;;;;;;5107518;27;20094;-65
2021/01/18 04:31:52;;;;;;;49.38;24.35;;;-6.00;85.90;;;;;;5106946;28;20040;-66
2021/01/18 04:34:18;;;;;;;44.80;23.75;;;-5.90;86.20;;;;;;5105030;28;20039;-66
2021/01/18 04:36:44;;;;;;;55.95;26.50;;;-5.90;86.20;;;;;;5084483;28;20559;-66
2021/01/18 04:39:10;;;;;;;58.67;27.17;;;-5.80;86.40;;;;;;5091341;28;20381;-65
2021/01/18 04:41:40;;;;;;;62.95;29.73;;;-5.80;86.10;;;;;;5081769;28;20677;-67
2021/01/18 04:44:07;;;;;;;55.33;27.45;;;-5.70;86.20;;;;;;5083026;28;20077;-68
2021/01/18 04:46:39;;;;;;;57.53;28.50;;;-5.70;86.30;;;;;;5084287;28;20521;-67
2021/01/18 04:49:05;;;;;;;57.53;30.70;;;-5.70;86.70;;;;;;5079711;28;20028;-67
2021/01/18 04:51:39;;;;;;;56.83;27.98;;;-5.60;87.10;;;;;;5082966;28;20314;-68
2021/01/18 04:54:12;;;;;;;63.65;30.65;;;-5.60;87.10;;;;;;5083359;28;20031;-66
2021/01/18 04:56:56;;;;;;;56.75;27.45;;;-5.60;87.10;;;;;;5083247;28;20050;-68
2021/01/18 04:59:28;;;;;;;60.85;28.38;;;-5.60;87.20;;;;;;5084384;28;20031;-70
2021/01/18 05:02:16;;;;;;;67.97;31.95;;;-5.60;87.20;;;;;;5078163;27;20488;-67
2021/01/18 05:04:44;;;;;;;70.78;32.58;;;-5.60;87.30;;;;;;5083594;28;20118;-69
2021/01/18 05:07:39;;;;;;;70.07;34.92;;;-5.60;86.80;;;;;;5082529;28;20028;-67
2021/01/18 05:10:11;;;;;;;56.78;26.52;;;-5.60;86.40;;;;;;5082673;28;20524;-66
2021/01/18 05:12:41;;;;;;;53.65;24.73;;;-5.60;86.20;;;;;;5081085;28;20074;-67
2021/01/18 05:15:12;;;;;;;54.63;25.13;;;-5.60;86.00;;;;;;5080311;28;20044;-67
2021/01/18 05:17:47;;;;;;;71.80;31.48;;;-5.60;85.20;;;;;;5081950;28;20615;-67
2021/01/18 05:20:18;;;;;;;77.28;34.55;;;-5.70;84.80;;;;;;5101958;28;20035;-66
2021/01/18 05:22:47;;;;;;;99.85;43.05;;;-5.80;84.80;;;;;;5100995;28;20039;-67
2021/01/18 05:25:13;;;;;;;77.10;36.55;;;-5.80;84.20;;;;;;5101367;28;20061;-65
2021/01/18 05:28:01;;;;;;;74.43;33.25;;;-5.90;84.30;;;;;;5101027;28;20062;-68
2021/01/18 05:30:29;;;;;;;65.22;32.22;;;-5.90;84.30;;;;;;5101145;28;20146;-67
2021/01/18 05:33:06;;;;;;;71.55;36.65;;;-6.00;84.10;;;;;;5083658;28;20523;-67
2021/01/18 05:35:33;;;;;;;69.90;35.47;;;-6.10;83.60;;;;;;5101925;28;20100;-67
2021/01/18 05:38:12;;;;;;;87.07;36.95;;;-6.20;83.50;;;;;;5102073;28;20114;-67
2021/01/18 05:40:45;;;;;;;57.95;28.92;;;-6.30;83.40;;;;;;5102410;28;20044;-67
2021/01/18 05:43:14;;;;;;;66.32;29.65;;;-6.50;83.00;;;;;;5102859;28;20040;-67
2021/01/18 05:45:41;;;;;;;50.83;25.05;;;-6.60;82.60;;;;;;5102526;27;20457;-67
2021/01/18 05:48:10;;;;;;;62.28;30.65;;;-6.80;83.10;;;;;;5102317;28;20504;-66
2021/01/18 05:50:37;;;;;;;65.78;30.75;;;-6.90;83.40;;;;;;5084399;28;20035;-67
2021/01/18 05:53:32;;;;;;;67.40;32.53;;;-7.10;83.40;;;;;;5101938;28;20378;-66
2021/01/18 05:56:18;;;;;;;81.72;37.47;;;-7.20;83.60;;;;;;5099226;28;20523;-69
2021/01/18 05:58:46;;;;;;;65.13;31.80;;;-7.30;83.30;;;;;;5101773;28;20161;-67
2021/01/18 06:01:11;;;;;;;66.10;30.08;;;-7.50;83.60;;;;;;5080135;28;20350;-67
2021/01/18 06:03:38;;;;;;;83.53;36.30;;;-7.50;83.60;;;;;;5101626;27;20036;-67
2021/01/18 06:06:03;;;;;;;750.42;278.30;;;-7.70;84.00;;;;;;5097214;28;20093;-67
2021/01/18 06:08:29;;;;;;;160.15;54.20;;;-7.70;84.30;;;;;;5101542;28;20445;-66
2021/01/18 06:11:03;;;;;;;86.43;34.97;;;-7.80;84.30;;;;;;5079429;28;20438;-66
2021/01/18 06:13:33;;;;;;;73.70;30.15;;;-7.90;83.90;;;;;;5102265;28;20113;-67
2021/01/18 06:16:01;;;;;;;93.00;37.70;;;-7.90;84.00;;;;;;5102110;28;20112;-66
2021/01/18 06:18:29;;;;;;;281.15;95.22;;;-8.00;84.40;;;;;;5078917;28;20580;-67
2021/01/18 06:20:58;;;;;;;171.57;61.40;;;-8.10;85.10;;;;;;5101874;28;20044;-66
2021/01/18 06:23:25;;;;;;;118.55;46.28;;;-8.20;85.70;;;;;;5102258;28;20039;-68
2021/01/18 06:25:53;;;;;;;116.72;48.95;;;-8.20;85.60;;;;;;5099960;28;20049;-67
2021/01/18 06:28:33;;;;;;;99.13;41.90;;;-8.20;85.70;;;;;;5102513;28;20396;-67
2021/01/18 06:31:01;;;;;;;96.57;39.88;;;-8.20;86.10;;;;;;5080210;28;20039;-67
2021/01/18 06:33:43;;;;;;;77.68;35.63;;;-8.20;86.50;;;;;;5100682;28;20077;-67
2021/01/18 06:36:17;;;;;;;104.50;37.60;;;-8.20;87.00;;;;;;5100819;28;20050;-66
2021/01/18 06:39:00;;;;;;;123.75;42.63;;;-8.10;87.80;;;;;;5085984;28;20590;-67
2021/01/18 06:41:27;;;;;;;67.00;27.92;;;-7.80;86.70;;;;;;5086570;28;20036;-68
2021/01/18 06:43:53;;;;;;;113.25;40.17;;;-7.70;86.00;;;;;;5104072;28;20046;-66
2021/01/18 06:46:25;;;;;;;153.85;51.17;;;-7.60;85.40;;;;;;5103725;28;20031;-68
2021/01/18 06:48:52;;;;;;;136.30;46.78;;;-7.60;85.40;;;;;;5084991;27;20032;-66
2021/01/18 06:51:20;;;;;;;136.73;50.97;;;-7.70;85.70;;;;;;5102707;28;20062;-66
2021/01/18 06:53:47;;;;;;;106.20;40.10;;;-7.60;86.10;;;;;;5084913;28;20039;-66
2021/01/18 06:56:22;;;;;;;82.93;36.08;;;-7.70;86.10;;;;;;5105138;28;20051;-66
2021/01/18 06:59:15;;;;;;;101.95;43.17;;;-7.70;85.30;;;;;;5086242;28;20062;-66
2021/01/18 07:01:46;;;;;;;96.68;41.67;;;-7.70;85.00;;;;;;5104308;28;20148;-66
2021/01/18 07:04:14;;;;;;;112.82;48.13;;;-7.80;84.90;;;;;;5104170;28;20036;-66
2021/01/18 07:06:45;;;;;;;120.65;51.40;;;-7.80;85.20;;;;;;5101473;28;20050;-69
2021/01/18 07:09:16;;;;;;;132.40;58.00;;;-7.70;85.10;;;;;;5100967;28;20084;-68
2021/01/18 07:11:43;;;;;;;125.47;55.95;;;-7.60;85.70;;;;;;5081846;28;20044;-67
2021/01/18 07:14:10;;;;;;;106.00;45.65;;;-7.50;85.60;;;;;;5104588;28;20046;-67
2021/01/18 07:16:39;;;;;;;88.30;37.63;;;-7.30;84.80;;;;;;5107883;27;20067;-67
2021/01/18 07:19:06;;;;;;;67.43;31.25;;;-7.20;84.60;;;;;;5107304;28;20028;-67
2021/01/18 07:21:45;;;;;;;68.75;31.52;;;-7.00;84.30;;;;;;5106980;28;20031;-68
2021/01/18 07:24:14;;;;;;;88.50;38.35;;;-6.90;83.90;;;;;;5103887;27;20550;-66
2021/01/18 07:26:53;;;;;;;104.72;44.72;;;-6.80;83.70;;;;;;5089601;28;20432;-67
2021/01/18 07:29:20;;;;;;;85.35;36.50;;;-6.70;83.50;;;;;;5103035;27;20048;-66
2021/01/18 07:31:49;;;;;;;92.35;41.42;;;-6.60;83.10;;;;;;5105235;28;20512;-66
2021/01/18 07:34:17;;;;;;;97.40;42.65;;;-6.50;82.40;;;;;;5105206;28;20126;-66
2021/01/18 07:36:43;;;;;;;91.65;43.55;;;-6.40;82.10;;;;;;5104195;28;20037;-65
2021/01/18 07:39:32;;;;;;;164.48;53.78;;;-6.20;81.70;;;;;;5108083;28;20035;-67
2021/01/18 07:41:59;;;;;;;212.63;71.05;;;-6.10;81.00;;;;;;5108060;28;20035;-68
2021/01/18 07:44:44;;;;;;;211.25;73.90;;;-5.90;80.40;;;;;;5108568;27;20104;-68
2021/01/18 07:47:12;;;;;;;193.02;68.47;;;-5.80;79.80;;;;;;5089917;28;20043;-68
2021/01/18 07:49:43;;;;;;;190.15;73.07;;;-5.60;79.00;;;;;;5108262;28;20027;-66
2021/01/18 07:52:18;;;;;;;194.85;69.07;;;-5.50;78.60;;;;;;5087513;28;20027;-65
2021/01/18 07:54:45;;;;;;;158.00;60.80;;;-5.40;78.40;;;;;;5106670;28;20047;-67
2021/01/18 07:57:32;;;;;;;148.27;57.85;;;-5.30;78.60;;;;;;5108079;28;20290;-66
2021/01/18 08:00:23;;;;;;;84.63;38.35;;;-5.10;78.10;;;;;;5108298;27;20062;-68
2021/01/18 08:03:07;;;;;;;73.85;36.45;;;-5.00;78.30;;;;;;5094975;28;20070;-67
2021/01/18 08:05:35;;;;;;;93.38;44.75;;;-4.80;78.90;;;;;;5089307;28;20036;-66
2021/01/18 08:08:04;;;;;;;106.90;47.67;;;-4.60;79.60;;;;;;5108189;27;20040;-66
2021/01/18 08:10:49;;;;;;;114.97;48.17;;;-4.40;78.90;;;;;;5088967;28;20036;-67
2021/01/18 08:13:57;;;;;;;111.45;51.22;;;-4.20;78.20;;;;;;5106834;28;20044;-66
2021/01/18 08:16:22;;;;;;;;;;;-3.90;77.80;;;;;;5030552;28;20039;-67
2021/01/18 08:18:59;;;;;;;263.88;106.72;;;-3.80;77.60;;;;;;5079216;28;19915;-67
2021/01/18 08:21:33;;;;;;;186.18;86.43;;;-3.70;76.80;;;;;;5107051;28;20088;-67
2021/01/18 08:24:03;;;;;;;187.45;87.10;;;-3.50;76.60;;;;;;5105783;28;20032;-67
2021/01/18 08:26:41;;;;;;;129.18;58.15;;;-3.40;75.90;;;;;;5106785;28;20606;-68
2021/01/18 08:29:45;;;;;;;105.47;49.05;;;-3.30;75.70;;;;;;5107952;28;20514;-65
2021/01/18 08:32:34;;;;;;;143.65;75.68;;;-3.20;75.70;;;;;;5107592;28;20155;-67
2021/01/18 08:35:05;;;;;;;90.72;46.72;;;-3.20;75.10;;;;;;5093680;28;20048;-66
2021/01/18 08:37:33;;;;;;;80.22;40.78;;;-3.20;75.60;;;;;;5106035;28;20516;-67
2021/01/18 08:40:10;;;;;;;105.82;49.20;;;-3.20;74.70;;;;;;5107291;28;20036;-66
2021/01/18 08:42:38;;;;;;;118.43;61.58;;;-3.20;74.90;;;;;;5107533;28;20115;-67
2021/01/18 08:45:23;;;;;;;90.72;43.67;;;-3.20;75.40;;;;;;5107898;28;20028;-66
2021/01/18 08:47:59;;;;;;;77.65;40.15;;;-3.20;74.30;;;;;;5105485;28;20092;-66
2021/01/18 08:50:27;;;;;;;107.00;51.70;;;-3.20;74.80;;;;;;5107313;28;20367;-67
2021/01/18 08:52:56;;;;;;;156.07;67.03;;;-3.20;75.60;;;;;;5105953;28;20035;-67
2021/01/18 08:55:30;;;;;;;115.30;54.90;;;-3.10;75.20;;;;;;5106233;28;20043;-66
2021/01/18 08:57:57;;;;;;;81.45;41.75;;;-3.00;74.70;;;;;;5088794;28;20189;-67
2021/01/18 09:00:23;;;;;;;96.68;52.13;;;-2.90;74.30;;;;;;5107513;28;20542;-67
2021/01/18 09:02:49;;;;;;;;;;;-2.80;73.80;;;;;;5104463;28;20463;-66
2021/01/18 09:05:21;;;;;;;61.53;30.20;;;-2.90;73.00;;;;;;5105276;28;20391;-66
2021/01/18 09:07:48;;;;;;;60.00;30.45;;;-3.10;71.70;;;;;;5088453;28;20040;-67
2021/01/18 09:10:19;;;;;;;77.15;40.75;;;-3.20;72.80;;;;;;5107176;28;20083;-68
2021/01/18 09:12:46;;;;;;;59.90;29.02;;;-3.30;72.90;;;;;;5106144;27;20043;-67
2021/01/18 09:15:13;;;;;;;53.72;27.73;;;-3.30;73.20;;;;;;5106365;28;20050;-67
2021/01/18 09:17:40;;;;;;;68.22;33.50;;;-3.30;73.40;;;;;;5088267;28;20035;-67
2021/01/18 09:20:10;;;;;;;59.33;29.80;;;-3.50;74.00;;;;;;5086085;28;20591;-66
2021/01/18 09:22:38;;;;;;;120.10;58.53;;;-3.70;75.50;;;;;;5106442;28;20027;-65
2021/01/18 09:25:05;;;;;;;62.95;32.35;;;-3.70;75.30;;;;;;5105979;28;20080;-67
2021/01/18 09:27:32;;;;;;;49.15;25.17;;;-3.60;75.40;;;;;;5092598;28;20059;-66
2021/01/18 09:30:05;;;;;;;60.85;30.77;;;-3.50;74.50;;;;;;5090369;28;20071;-67
2021/01/18 09:32:31;;;;;;;52.53;26.40;;;-3.50;74.90;;;;;;5088315;28;20036;-67
2021/01/18 09:35:14;;;;;;;54.53;27.65;;;-3.40;74.30;;;;;;5085640;28;20052;-66
2021/01/18 09:37:48;;;;;;;96.22;43.63;;;-3.50;74.40;;;;;;5086721;28;20054;-66
2021/01/18 09:40:15;;;;;;;75.00;33.42;;;-3.70;75.10;;;;;;5090505;28;20074;-66
2021/01/18 09:42:41;;;;;;;95.90;44.92;;;-3.70;75.20;;;;;;5092605;28;20036;-66
2021/01/18 09:45:10;;;;;;;68.20;33.20;;;-3.60;75.70;;;;;;5088708;28;20036;-67
2021/01/18 09:47:38;;;;;;;84.97;41.78;;;-3.50;76.50;;;;;;5090023;28;20670;-66
2021/01/18 09:50:22;;;;;;;78.13;37.85;;;-3.40;75.60;;;;;;5085906;28;20043;-67
2021/01/18 09:52:51;;;;;;;83.10;38.58;;;-3.40;74.50;;;;;;5075368;28;20065;-66
2021/01/18 09:55:23;;;;;;;67.03;34.65;;;-3.60;74.10;;;;;;5085218;28;20040;-66
2021/01/18 09:58:00;;;;;;;60.00;29.25;;;-3.60;75.20;;;;;;5086619;28;20028;-66
2021/01/18 10:00:47;;;;;;;62.67;30.52;;;-3.60;75.40;;;;;;5093016;28;20406;-66
2021/01/18 10:03:25;;;;;;;54.80;27.58;;;-3.60;76.00;;;;;;5086129;28;20032;-67
2021/01/18 10:06:01;;;;;;;55.47;29.92;;;-3.60;75.40;;;;;;5089947;28;20079;-67
2021/01/18 10:08:29;;;;;;;67.05;34.90;;;-3.60;75.90;;;;;;5087916;28;20039;-66
2021/01/18 10:10:54;;;;;;;48.85;25.65;;;-3.60;75.40;;;;;;5068010;28;20076;-66
2021/01/18 10:13:25;;;;;;;57.40;29.23;;;-3.50;74.40;;;;;;5088072;28;20090;-67
2021/01/18 10:15:53;;;;;;;53.35;26.27;;;-3.50;73.30;;;;;;5086092;28;20046;-65
2021/01/18 10:18:29;;;;;;;48.75;23.33;;;-3.70;73.70;;;;;;5067401;28;20085;-66
2021/01/18 10:20:55;;;;;;;44.85;23.45;;;-3.90;74.50;;;;;;5068490;28;20039;-67
2021/01/18 10:23:21;;;;;;;50.08;24.27;;;-3.80;75.00;;;;;;5066850;28;20036;-66
2021/01/18 10:25:46;;;;;;;56.47;29.33;;;-3.80;74.10;;;;;;5085950;28;20032;-67
2021/01/18 10:28:19;;;;;;;56.55;28.75;;;-3.80;75.10;;;;;;5085563;28;20040;-67
2021/01/18 10:30:45;;;;;;;48.47;25.63;;;-3.80;74.90;;;;;;5065960;28;20090;-67
2021/01/18 10:33:18;;;;;;;52.10;26.40;;;-3.70;74.60;;;;;;5068899;28;20042;-68
2021/01/18 10:35:47;;;;;;;58.70;28.65;;;-3.60;74.50;;;;;;5068894;28;20043;-66
2021/01/18 10:38:22;;;;;;;49.90;25.23;;;-3.40;73.20;;;;;;5085568;28;20040;-66
2021/01/18 10:41:08;;;;;;;41.83;22.83;;;-3.50;73.40;;;;;;5085076;28;20066;-68
2021/01/18 10:43:34;;;;;;;75.67;38.63;;;-3.70;73.40;;;;;;5064480;28;20071;-67
2021/01/18 10:46:01;;;;;;;46.35;25.02;;;-3.70;74.10;;;;;;5067052;28;20036;-67
2021/01/18 10:48:32;;;;;;;50.65;27.20;;;-3.70;74.10;;;;;;5085895;27;20161;-67
2021/01/18 10:51:02;;;;;;;45.92;24.40;;;-3.70;74.30;;;;;;5089216;28;20213;-66
2021/01/18 10:53:30;;;;;;;49.25;25.02;;;-3.60;74.90;;;;;;5070872;28;20036;-67
2021/01/18 10:56:32;;;;;;;46.28;24.58;;;-3.40;75.10;;;;;;5070771;28;20092;-67
2021/01/18 10:58:58;;;;;;;43.28;22.38;;;-3.20;74.60;;;;;;5040203;28;20056;-67
2021/01/18 11:01:24;;;;;;;52.25;24.02;;;-3.10;74.40;;;;;;5089803;27;20047;-66
2021/01/18 11:03:49;;;;;;;;;;;-3.00;73.50;;;;;;5088758;28;20036;-66
2021/01/18 11:06:17;;;;;;;46.60;23.15;;;-3.10;71.50;;;;;;5087977;28;20312;-65
2021/01/18 11:08:43;;;;;;;45.53;23.35;;;-3.30;71.90;;;;;;5088715;28;20118;-65
2021/01/18 11:11:37;;;;;;;48.83;25.25;;;-3.50;72.90;;;;;;5090857;27;20544;-66
2021/01/18 11:14:08;;;;;;;81.50;39.10;;;-3.60;73.80;;;;;;5083086;28;20054;-65
2021/01/18 11:16:34;;;;;;;86.30;43.17;;;-3.60;74.20;;;;;;5089724;28;20126;-66
2021/01/18 11:19:05;;;;;;;104.78;52.83;;;-3.40;74.00;;;;;;5087918;28;20067;-66
2021/01/18 11:21:30;;;;;;;67.82;33.47;;;-3.50;74.80;;;;;;5087950;28;20119;-66
2021/01/18 11:23:56;;;;;;;70.10;32.85;;;-3.40;75.20;;;;;;5088972;28;20163;-65
2021/01/18 11:26:23;;;;;;;60.17;32.00;;;-3.40;75.30;;;;;;5090907;28;20101;-66
2021/01/18 11:28:49;;;;;;;55.60;28.80;;;-3.20;75.00;;;;;;5092759;28;20064;-66
2021/01/18 11:31:14;;;;;;;;;;;-3.10;74.80;;;;;;5092951;28;20064;-66
2021/01/18 11:33:40;;;;;;;61.38;30.67;;;-3.00;74.10;;;;;;5091982;28;19911;-65
2021/01/18 11:36:06;;;;;;;48.50;25.98;;;-2.90;73.60;;;;;;5092704;28;20036;-66
2021/01/18 11:38:32;;;;;;;;;;;-2.80;73.40;;;;;;5091023;28;20051;-67
2021/01/18 11:40:57;;;;;;;171.07;75.20;;;-2.70;72.70;;;;;;5069987;28;19912;-67
2021/01/18 11:43:23;;;;;;;71.45;34.13;;;-2.80;72.70;;;;;;5092085;28;20032;-66
2021/01/18 11:45:49;;;;;;;;;;;-2.70;72.20;;;;;;5088887;28;20032;-66
2021/01/18 11:48:14;;;;;;;119.45;61.20;;;-2.80;71.30;;;;;;5090147;28;19922;-65
2021/01/18 11:50:40;;;;;;;53.08;26.23;;;-2.90;70.90;;;;;;5087715;28;20075;-66
2021/01/18 11:53:07;;;;;;;53.25;27.50;;;-3.20;71.80;;;;;;5088221;28;20032;-66
2021/01/18 11:55:33;;;;;;;56.85;25.38;;;-3.20;71.20;;;;;;5089952;28;20036;-66
2021/01/18 11:57:58;;;;;;;;;;;-3.30;71.80;;;;;;5090541;28;20118;-66
2021/01/18 12:00:29;;;;;;;48.45;23.73;;;-3.30;72.50;;;;;;5093079;28;20388;-66
2021/01/18 12:02:59;;;;;;;49.38;23.38;;;-3.40;72.30;;;;;;5087777;28;20124;-66
2021/01/18 12:05:26;;;;;;;59.50;28.27;;;-3.40;72.80;;;;;;5087584;28;20040;-66
2021/01/18 12:07:56;;;;;;;52.20;25.30;;;-3.50;72.30;;;;;;5090043;28;20031;-66
2021/01/18 12:10:23;;;;;;;56.92;26.77;;;-3.50;72.60;;;;;;5090615;28;20123;-66
2021/01/18 12:12:49;;;;;;;69.30;34.85;;;-3.50;73.10;;;;;;5090166;28;20036;-66
2021/01/18 12:15:16;;;;;;;67.18;33.97;;;-3.50;73.30;;;;;;5092097;28;20048;-67
2021/01/18 12:17:42;;;;;;;49.67;25.35;;;-3.60;74.20;;;;;;5068785;28;20036;-65
2021/01/18 12:20:10;;;;;;;48.45;24.63;;;-3.50;73.80;;;;;;5089866;28;20393;-66
2021/01/18 12:22:36;;;;;;;46.97;25.30;;;-3.50;73.60;;;;;;5095046;28;20040;-66
2021/01/18 12:25:04;;;;;;;58.53;29.83;;;-3.50;73.80;;;;;;5094048;28;20123;-66
2021/01/18 12:27:29;;;;;;;57.47;29.40;;;-3.40;74.50;;;;;;5068925;28;20052;-67
2021/01/18 12:29:55;;;;;;;;;;;-3.20;74.20;;;;;;5074106;28;20046;-67
2021/01/18 12:32:21;;;;;;;53.72;25.27;;;-3.20;73.80;;;;;;5087020;28;20007;-66
2021/01/18 12:34:46;;;;;;;;;;;-3.10;73.70;;;;;;5089701;28;20078;-66
2021/01/18 12:37:12;;;;;;;61.45;29.65;;;-3.10;73.20;;;;;;5088140;28;19961;-65
2021/01/18 12:39:38;;;;;;;;;;;-3.00;72.80;;;;;;5069252;28;20412;-65
2021/01/18 12:42:05;;;;;;;55.50;27.63;;;-2.90;72.20;;;;;;5091373;28;20402;-66
2021/01/18 12:44:30;;;;;;;49.78;25.67;;;-2.90;72.30;;;;;;5089259;28;20032;-64
2021/01/18 12:47:00;;;;;;;51.03;26.08;;;-2.90;72.00;;;;;;5086577;28;20572;-66